Time;durP1;ratioP1;P1;durP2;ratioP2;P2;SDS_P1;SDS_P2;PMS_P1;PMS_P2;Temp;Humidity;BMP_temperature;BMP_pressure;BME280_temperature;BME280_humidity;BME280_pressure;Samples;Min_cycle;Max_cycle;Signal;HPM_P1;HPM_P2
2021/01/20 00:01:37;;;;;;;15.37;10.27;;;7.70;99.90;;;5.87;100.00;83848.22;5049813;28;20265;-76
2021/01/20 00:04:23;;;;;;;17.57;11.07;;;7.70;99.90;;;5.73;100.00;83937.16;5034094;28;20733;-76
2021/01/20 00:07:08;;;;;;;12.63;8.30;;;7.70;99.90;;;5.67;100.00;83981.63;5040327;28;20241;-75
2021/01/20 00:09:53;;;;;;;19.47;10.13;;;7.70;99.90;;;5.72;100.00;83968.97;5037637;28;20283;-76
2021/01/20 00:12:38;;;;;;;16.07;10.93;;;7.70;99.90;;;5.82;100.00;83900.66;5032550;28;20204;-75
2021/01/20 00:15:25;;;;;;;12.50;9.43;;;7.60;99.90;;;5.86;100.00;83883.31;5039408;28;20253;-77
2021/01/20 00:18:11;;;;;;;15.00;10.30;;;7.60;99.90;;;5.79;100.00;83942.41;5042501;28;20296;-75
2021/01/20 00:20:56;;;;;;;13.13;8.57;;;7.60;99.90;;;5.46;100.00;84137.19;5036270;28;20259;-75
2021/01/20 00:23:41;;;;;;;17.07;11.33;;;7.60;99.90;;;5.08;100.00;84352.72;5039208;28;20234;-76
2021/01/20 00:26:27;;;;;;;14.10;8.23;;;7.60;99.90;;;4.96;100.00;84410.38;5034548;28;20335;-76
2021/01/20 00:29:12;;;;;;;15.63;10.77;;;7.60;99.90;;;4.94;100.00;84434.88;5033153;28;20239;-75
2021/01/20 00:31:57;;;;;;;16.33;11.00;;;7.60;99.90;;;4.97;100.00;84418.72;5043130;28;20307;-76
2021/01/20 00:34:43;;;;;;;13.30;10.83;;;7.50;99.90;;;5.10;100.00;84356.28;5043967;28;20278;-76
2021/01/20 00:37:28;;;;;;;17.50;10.53;;;7.50;99.90;;;5.18;100.00;84313.34;5035412;28;20250;-75
2021/01/20 00:40:15;;;;;;;17.37;11.73;;;7.40;99.90;;;5.08;100.00;84368.75;5041837;28;20222;-75
2021/01/20 00:43:00;;;;;;;15.67;10.60;;;7.40;99.90;;;5.06;100.00;84372.84;5047178;28;20293;-76
2021/01/20 00:45:45;;;;;;;15.43;11.23;;;7.30;99.90;;;5.17;100.00;84322.13;5050099;28;20225;-75
2021/01/20 00:48:30;;;;;;;18.27;11.53;;;7.30;99.90;;;5.22;100.00;84293.50;5043451;28;20218;-76
2021/01/20 00:51:16;;;;;;;17.03;11.47;;;7.30;99.90;;;5.28;100.00;84257.91;5048295;28;20234;-75
2021/01/20 00:54:02;;;;;;;16.90;10.40;;;7.30;99.90;;;5.30;100.00;84265.16;5040338;28;20218;-76
2021/01/20 00:56:47;;;;;;;16.37;11.27;;;7.20;99.90;;;5.29;100.00;84256.09;5035886;28;20206;-75
2021/01/20 00:59:32;;;;;;;15.70;10.67;;;7.20;99.90;;;5.41;100.00;84176.78;5037048;28;20228;-74
2021/01/20 01:02:17;;;;;;;18.73;10.57;;;7.20;99.90;;;5.41;100.00;84179.34;5043325;28;20250;-75
2021/01/20 01:05:03;;;;;;;10.03;7.80;;;7.20;99.90;;;5.44;100.00;84160.59;5041145;28;20199;-74
2021/01/20 01:07:49;;;;;;;15.37;9.67;;;7.20;99.90;;;5.49;100.00;84120.31;5044853;28;20256;-75
2021/01/20 01:10:34;;;;;;;15.50;8.77;;;7.20;99.90;;;5.53;100.00;84083.25;5032910;28;20235;-76
2021/01/20 01:13:20;;;;;;;14.57;9.50;;;7.10;99.90;;;5.59;100.00;84038.13;5045427;28;20295;-75
2021/01/20 01:16:06;;;;;;;12.30;9.67;;;7.10;99.90;;;5.66;100.00;83977.66;5033103;28;20223;-76
2021/01/20 01:18:51;;;;;;;14.33;9.10;;;7.10;99.90;;;5.69;100.00;83938.47;5047865;28;20277;-76
2021/01/20 01:21:37;;;;;;;15.70;9.80;;;7.10;99.90;;;5.73;100.00;83900.69;5050526;28;20703;-75
2021/01/20 01:24:23;;;;;;;13.50;9.37;;;7.10;99.90;;;5.70;100.00;83909.91;5049821;28;20211;-76
2021/01/20 01:27:08;;;;;;;13.33;9.40;;;7.10;99.90;;;5.76;100.00;83848.72;5045455;28;20214;-75
2021/01/20 01:29:53;;;;;;;11.10;7.40;;;7.10;99.90;;;5.78;100.00;83800.41;5045101;28;20220;-73
2021/01/20 01:32:38;;;;;;;13.97;8.40;;;7.10;99.90;;;5.78;100.00;83790.19;5034617;28;20211;-76
2021/01/20 01:35:23;;;;;;;13.50;9.20;;;7.10;99.90;;;5.76;100.00;83766.91;5038269;28;20258;-75
2021/01/20 01:38:08;;;;;;;12.03;8.77;;;7.10;99.90;;;5.77;100.00;83750.41;5040507;28;20591;-76
2021/01/20 01:40:55;;;;;;;12.00;7.97;;;7.10;99.90;;;5.74;100.00;83741.78;5042328;28;20270;-75
2021/01/20 01:43:39;;;;;;;12.33;7.67;;;7.10;99.90;;;5.72;100.00;83733.13;5051418;28;20218;-75
2021/01/20 01:46:25;;;;;;;13.00;7.83;;;7.10;99.90;;;5.77;100.00;83678.84;5044134;28;20250;-75
2021/01/20 01:49:10;;;;;;;11.53;7.83;;;7.20;99.90;;;5.77;100.00;83663.53;5047475;28;20206;-75
2021/01/20 01:51:59;;;;;;;15.73;8.73;;;7.20;99.90;;;5.77;100.00;83633.56;5044668;28;20230;-75
2021/01/20 01:54:45;;;;;;;10.27;6.70;;;7.20;99.90;;;5.79;100.00;83594.78;5042809;28;20321;-75
2021/01/20 01:57:31;;;;;;;11.27;7.37;;;7.20;99.90;;;5.75;100.00;83594.94;5051476;28;20203;-76
2021/01/20 02:00:17;;;;;;;13.50;8.50;;;7.20;99.90;;;5.73;100.00;83563.31;5053868;28;20322;-75
2021/01/20 02:03:03;;;;;;;12.37;8.20;;;7.20;99.90;;;5.66;100.00;83564.38;5047825;28;20266;-76
2021/01/20 02:05:48;;;;;;;14.17;7.97;;;7.20;99.90;;;5.56;100.00;83583.47;5049110;28;20301;-74
2021/01/20 02:08:33;;;;;;;13.73;9.17;;;7.20;99.90;;;5.66;100.00;83485.16;5043096;28;20570;-75
2021/01/20 02:11:37;;;;;;;13.00;8.73;;;7.20;99.90;;;5.69;100.00;83425.50;5044028;28;20285;-75
2021/01/20 02:14:35;;;;;;;11.47;7.50;;;7.20;99.90;;;5.75;100.00;83357.28;5037526;28;20675;-76
2021/01/20 02:17:29;;;;;;;12.63;8.23;;;7.20;99.90;;;5.72;100.00;83324.25;5045460;28;20198;-75
2021/01/20 02:20:45;;;;;;;13.43;7.77;;;7.20;99.90;;;5.72;100.00;83288.47;5040147;28;20306;-74
2021/01/20 02:23:31;;;;;;;13.40;7.80;;;7.20;99.90;;;5.79;100.00;83196.09;5038658;28;20223;-75
2021/01/20 02:26:25;;;;;;;12.67;7.80;;;7.20;99.90;;;5.79;100.00;83135.44;5047979;28;20221;-76
2021/01/20 02:29:30;;;;;;;15.03;8.27;;;7.20;99.90;;;5.88;100.00;83032.38;5043237;28;20203;-76
2021/01/20 02:32:18;;;;;;;11.50;7.10;;;7.20;99.90;;;5.82;100.00;83015.56;5045105;28;20238;-76
2021/01/20 02:35:08;;;;;;;12.73;8.67;;;7.20;99.90;;;5.74;100.00;83010.19;5049083;28;20235;-76
2021/01/20 02:37:54;;;;;;;11.90;8.00;;;7.30;99.90;;;5.78;100.00;82934.00;5046710;28;20684;-76
2021/01/20 02:40:39;;;;;;;13.10;8.13;;;7.20;99.90;;;5.92;100.00;82799.56;5042806;28;20237;-76
2021/01/20 02:43:25;;;;;;;12.40;7.57;;;7.30;99.90;;;5.96;100.00;82695.25;5045318;28;20295;-76
2021/01/20 02:46:10;;;;;;;13.53;8.33;;;7.30;99.90;;;5.94;100.00;82639.47;5037121;28;20298;-75
2021/01/20 02:48:58;;;;;;;13.73;9.23;;;7.30;99.90;;;5.88;100.00;82630.41;5042662;28;20258;-76
2021/01/20 02:51:52;;;;;;;12.57;7.90;;;7.30;99.90;;;5.90;100.00;82552.09;5043858;28;20307;-76
2021/01/20 02:54:40;;;;;;;12.07;8.37;;;7.40;99.90;;;5.88;100.00;82508.44;5042791;28;20292;-76
2021/01/20 02:57:29;;;;;;;10.90;7.93;;;7.40;99.90;;;5.91;100.00;82433.38;5041410;28;20299;-76
2021/01/20 03:00:17;;;;;;;12.37;8.13;;;7.40;99.90;;;5.94;100.00;82352.53;5050409;28;20223;-75
2021/01/20 03:03:09;;;;;;;14.10;8.13;;;7.40;99.90;;;5.88;100.00;82319.31;5050335;28;20249;-76
2021/01/20 03:05:56;;;;;;;16.77;8.93;;;7.40;99.90;;;5.87;100.00;82274.47;5041727;28;20258;-76
2021/01/20 03:08:43;;;;;;;12.20;7.70;;;7.40;99.90;;;5.90;100.00;82170.63;5050938;28;20245;-76
2021/01/20 03:11:29;;;;;;;13.83;8.17;;;7.50;99.90;;;5.91;100.00;82119.03;5049103;28;20277;-76
2021/01/20 03:14:15;;;;;;;14.17;8.23;;;7.50;99.90;;;5.88;100.00;82068.19;5034353;28;20195;-76
2021/01/20 03:17:01;;;;;;;12.27;7.93;;;7.50;99.90;;;5.84;100.00;82009.69;5044999;28;20694;-76
2021/01/20 03:19:49;;;;;;;10.87;8.27;;;7.50;99.90;;;5.83;100.00;81959.06;5039561;28;20921;-76
2021/01/20 03:22:35;;;;;;;12.13;7.00;;;7.50;99.90;;;5.80;100.00;81904.50;5041719;28;20215;-75
2021/01/20 03:25:20;;;;;;;13.13;7.70;;;7.50;99.90;;;5.82;100.00;81825.50;5049335;28;20245;-75
2021/01/20 03:28:05;;;;;;;11.77;7.43;;;7.50;99.90;;;5.87;100.00;81709.09;5050861;28;20214;-75
2021/01/20 03:30:51;;;;;;;11.07;7.57;;;7.50;99.90;;;5.89;100.00;81627.50;5052013;28;20795;-75
2021/01/20 03:33:36;;;;;;;11.83;7.43;;;7.60;99.90;;;6.03;100.00;81480.72;5033799;28;20207;-75
2021/01/20 03:36:21;;;;;;;12.37;7.10;;;7.60;99.90;;;6.13;100.00;81330.22;5040624;28;20234;-75
2021/01/20 03:39:07;;;;;;;10.13;6.60;;;7.60;99.90;;;6.20;100.00;81196.00;5043195;28;20270;-74
2021/01/20 03:41:52;;;;;;;9.60;6.70;;;7.60;99.90;;;6.27;100.00;81078.44;5041987;28;20242;-76
2021/01/20 03:44:37;;;;;;;9.47;6.40;;;7.60;99.90;;;6.37;100.00;80945.06;5048295;28;20221;-75
2021/01/20 03:47:22;;;;;;;10.50;6.63;;;7.60;99.90;;;6.39;100.00;80843.66;5037570;28;20257;-75
2021/01/20 03:50:09;;;;;;;8.07;5.73;;;7.70;99.90;;;6.37;100.00;80781.44;5051291;28;20283;-75
2021/01/20 03:52:54;;;;;;;10.23;6.23;;;7.70;99.90;;;6.38;100.00;80683.78;5051438;28;20740;-75
2021/01/20 03:55:40;;;;;;;8.27;6.33;;;7.70;99.90;;;6.40;100.00;80583.56;5044630;28;20215;-75
2021/01/20 03:58:25;;;;;;;8.60;6.07;;;7.70;99.90;;;6.42;100.00;80494.22;5042019;28;20211;-76
2021/01/20 04:01:10;;;;;;;7.87;5.80;;;7.80;99.90;;;6.50;100.00;80344.69;5042993;28;20222;-74
2021/01/20 04:03:56;;;;;;;10.43;6.47;;;7.80;99.90;;;6.53;100.00;80245.16;5041247;28;20226;-75
2021/01/20 04:06:41;;;;;;;9.87;5.63;;;7.80;99.90;;;6.53;100.00;80117.97;5038598;28;20694;-75
2021/01/20 04:09:26;;;;;;;11.70;6.90;;;7.90;99.90;;;6.54;100.00;80021.47;5048609;28;20202;-76
2021/01/20 04:12:12;;;;;;;8.83;6.83;;;7.90;99.90;;;6.54;100.00;79912.25;5051686;28;20299;-76
2021/01/20 04:14:57;;;;;;;8.70;5.87;;;7.90;99.90;;;6.56;100.00;79787.09;5046599;28;20215;-74
2021/01/20 04:17:42;;;;;;;8.00;5.70;;;7.90;99.90;;;6.61;100.00;79640.41;5044363;28;20290;-75
2021/01/20 04:20:28;;;;;;;8.57;6.57;;;8.00;99.90;;;6.59;100.00;79527.78;5037534;28;20249;-75
2021/01/20 04:23:13;;;;;;;13.07;6.27;;;8.00;99.90;;;6.61;100.00;79369.38;5047193;28;20223;-75
2021/01/20 04:25:58;;;;;;;9.97;6.33;;;7.90;99.90;;;6.66;100.00;79169.00;5046055;28;20694;-76
2021/01/20 04:28:45;;;;;;;9.80;6.03;;;8.00;99.90;;;6.68;100.00;79012.47;5040154;28;20782;-75
2021/01/20 04:31:30;;;;;;;7.60;5.70;;;8.00;99.90;;;6.72;100.00;78792.13;5037260;28;20273;-75
2021/01/20 04:34:15;;;;;;;8.50;6.07;;;8.10;99.90;;;6.74;100.00;78585.16;5041294;28;20270;-76
2021/01/20 04:37:01;;;;;;;8.27;6.50;;;8.10;99.90;;;6.73;100.00;78389.53;5048917;28;20253;-76
2021/01/20 04:39:46;;;;;;;7.07;5.73;;;8.10;99.90;;;6.75;100.00;78132.06;5052278;28;20257;-75
2021/01/20 04:42:32;;;;;;;10.60;6.90;;;8.10;99.90;;;6.81;100.00;77842.75;5044564;28;20239;-75
2021/01/20 04:45:21;;;;;;;8.87;5.90;;;8.20;99.90;;;6.87;100.00;77531.06;5044673;28;20222;-76
2021/01/20 04:48:08;;;;;;;7.10;5.60;;;8.20;99.90;;;6.82;100.00;77281.66;5033139;28;20207;-76
2021/01/20 04:50:53;;;;;;;9.20;6.40;;;8.20;99.90;;;6.62;100.00;77147.03;5037573;28;20226;-76
2021/01/20 04:53:40;;;;;;;8.57;5.73;;;8.20;99.90;;;6.52;100.00;76898.34;5034771;28;20207;-76
2021/01/20 04:56:26;;;;;;;7.90;6.17;;;8.20;99.90;;;6.54;100.00;76538.16;5045269;28;20223;-75
2021/01/20 04:59:11;;;;;;;9.33;6.67;;;8.30;99.90;;;6.71;100.00;76025.47;5069597;28;20221;-75
2021/01/20 05:01:58;;;;;;;9.03;6.17;;;8.30;99.90;;;6.68;100.00;75657.56;5050698;28;20219;-75
2021/01/20 05:04:44;;;;;;;8.23;5.27;;;8.30;99.90;;;6.73;100.00;75126.22;5054623;28;20207;-75
2021/01/20 05:07:29;;;;;;;9.37;6.83;;;8.20;99.90;;;6.71;100.00;74705.44;5060020;28;20363;-74
2021/01/20 05:10:15;;;;;;;9.17;6.70;;;8.30;99.90;;;6.73;100.00;74284.00;5038168;28;20227;-75
2021/01/20 05:13:00;;;;;;;11.47;6.40;;;8.30;99.90;;;6.75;100.00;73801.25;5043899;28;20739;-75
2021/01/20 05:15:46;;;;;;;7.37;6.27;;;8.30;99.90;;;6.82;100.00;73253.25;5043030;28;20265;-75
2021/01/20 05:18:47;;;;;;;6.47;5.20;;;8.30;99.90;;;6.79;100.00;72883.78;5041897;28;20214;-75
2021/01/20 05:21:32;;;;;;;9.60;6.60;;;8.30;99.90;;;6.82;100.00;72403.00;5044386;28;20225;-75
2021/01/20 05:24:23;;;;;;;8.17;7.00;;;8.30;99.90;;;6.84;100.00;71912.09;5045098;28;20227;-75
2021/01/20 05:27:08;;;;;;;8.77;5.90;;;8.30;99.90;;;6.89;100.00;71428.00;5044083;28;20215;-75
2021/01/20 05:30:02;;;;;;;8.60;6.47;;;8.30;99.90;;;6.83;100.00;71196.75;5046021;28;20199;-76
2021/01/20 05:32:55;;;;;;;8.30;6.13;;;8.30;99.90;;;6.85;100.00;70981.63;5053024;28;20203;-74
2021/01/20 05:35:41;;;;;;;8.87;5.97;;;8.30;99.90;;;6.87;100.00;70853.84;5054991;28;20250;-77
2021/01/20 05:38:34;;;;;;;8.40;5.73;;;8.40;99.90;;;6.89;100.00;70825.59;5042522;28;20321;-75
2021/01/20 05:41:22;;;;;;;5.53;4.90;;;8.40;99.90;;;6.92;100.00;70905.75;5048688;28;20330;-75
2021/01/20 05:44:12;;;;;;;6.87;5.73;;;8.40;99.90;;;6.90;100.00;71173.94;5049916;28;20230;-75
2021/01/20 05:46:58;;;;;;;8.03;5.77;;;8.40;99.90;;;6.94;100.00;71574.44;5038689;28;20260;-74
2021/01/20 05:49:43;;;;;;;8.67;6.43;;;8.40;99.90;;;6.97;100.00;72091.28;5043477;28;20771;-74
2021/01/20 05:52:29;;;;;;;9.00;6.23;;;8.40;99.90;;;7.00;100.00;72733.38;5044010;28;20265;-74
2021/01/20 05:55:16;;;;;;;7.87;6.30;;;8.40;99.90;;;7.04;100.00;73481.00;5051127;28;20746;-74
2021/01/20 05:58:02;;;;;;;8.00;5.30;;;8.40;99.90;;;7.01;100.00;74404.69;5046314;28;20280;-74
2021/01/20 06:01:05;;;;;;;5.80;5.20;;;8.50;99.90;;;7.02;100.00;75566.78;5035541;28;20224;-74
2021/01/20 06:03:50;;;;;;;6.57;4.70;;;8.40;99.90;;;7.07;100.00;76594.44;5050837;28;20265;-74
2021/01/20 06:06:37;;;;;;;6.30;5.70;;;8.50;99.90;;;7.06;100.00;77401.16;5048625;28;20682;-74
2021/01/20 06:09:24;;;;;;;7.53;5.93;;;8.50;99.90;;;7.07;100.00;78037.41;5040587;28;20199;-74
2021/01/20 06:12:12;;;;;;;7.87;5.67;;;8.50;99.90;;;7.11;100.00;78554.25;5042786;28;20226;-74
2021/01/20 06:14:58;;;;;;;7.40;5.40;;;8.50;99.90;;;7.11;100.00;79068.47;5039748;28;20210;-74
2021/01/20 06:17:47;;;;;;;7.67;5.07;;;8.50;99.90;;;7.14;100.00;79468.41;5043567;28;20246;-74
2021/01/20 06:20:33;;;;;;;7.13;5.27;;;8.50;99.90;;;7.14;100.00;79735.22;5034140;28;20255;-74
2021/01/20 06:23:25;;;;;;;5.07;4.57;;;8.50;99.90;;;7.11;100.00;79889.84;5040732;28;20227;-74
2021/01/20 06:26:14;;;;;;;6.87;4.70;;;8.50;99.90;;;7.14;100.00;79964.88;5041468;28;20280;-74
2021/01/20 06:29:06;;;;;;;5.67;4.77;;;8.50;99.90;;;7.12;100.00;80029.38;5040337;28;20223;-74
2021/01/20 06:31:56;;;;;;;7.67;4.57;;;8.60;99.90;;;7.18;100.00;80024.03;5042992;28;20778;-74
2021/01/20 06:34:50;;;;;;;8.00;5.60;;;8.60;99.90;;;7.16;100.00;79798.66;5032252;28;20775;-74
2021/01/20 06:37:40;;;;;;;5.23;4.67;;;8.60;99.90;;;7.19;100.00;79536.56;5038602;28;20203;-74
2021/01/20 06:40:39;;;;;;;7.23;4.93;;;8.60;99.90;;;7.26;100.00;79243.91;5031812;28;20266;-74
2021/01/20 06:43:43;;;;;;;5.07;4.47;;;8.60;99.90;;;7.26;100.00;79192.06;5044156;28;20218;-74
2021/01/20 06:46:29;;;;;;;5.13;4.63;;;8.60;99.90;;;7.21;100.00;79603.22;5036290;28;20199;-75
2021/01/20 06:49:14;;;;;;;7.40;5.30;;;8.60;99.90;;;7.23;100.00;80171.53;5038047;28;20576;-75
2021/01/20 06:52:09;;;;;;;5.03;4.50;;;8.60;99.90;;;7.25;100.00;80801.47;5036732;28;20231;-75
2021/01/20 06:54:54;;;;;;;6.23;4.90;;;8.60;99.90;;;7.21;100.00;81446.31;5039356;28;20314;-75
2021/01/20 06:57:41;;;;;;;6.33;4.30;;;8.60;99.90;;;7.27;100.00;82125.50;5040523;28;20238;-75
2021/01/20 07:00:28;;;;;;;5.20;4.70;;;8.70;99.90;;;7.21;100.00;82806.13;5040026;28;20231;-75
2021/01/20 07:03:13;;;;;;;6.73;4.77;;;8.70;99.90;;;7.22;100.00;83375.47;5033636;28;20218;-75
2021/01/20 07:05:58;;;;;;;5.00;4.30;;;8.70;99.90;;;7.25;100.00;83867.19;5042123;28;20370;-75
2021/01/20 07:08:52;;;;;;;6.97;4.43;;;8.70;99.90;;;7.29;100.00;84336.66;5037995;28;20636;-74
2021/01/20 07:12:07;;;;;;;7.23;5.17;;;8.70;99.90;;;7.35;100.00;84900.63;5036182;28;20604;-75
2021/01/20 07:14:56;;;;;;;4.73;4.23;;;8.70;99.90;;;7.36;100.00;85315.50;5038576;28;20703;-75
2021/01/20 07:17:43;;;;;;;5.50;4.80;;;8.70;99.90;;;7.40;100.00;85763.34;5041402;28;20218;-75
2021/01/20 07:20:32;;;;;;;5.30;4.60;;;8.70;99.90;;;7.36;100.00;86168.53;5035239;28;20262;-75
2021/01/20 07:23:18;;;;;;;5.60;4.80;;;8.70;99.90;;;7.38;100.00;86577.31;5035949;28;20235;-75
2021/01/20 07:26:05;;;;;;;4.33;3.93;;;8.80;99.90;;;7.41;100.00;87016.22;5037133;28;20758;-75
2021/01/20 07:28:50;;;;;;;5.30;4.40;;;8.80;99.90;;;7.45;100.00;87270.91;5036909;28;20226;-75
2021/01/20 07:31:35;;;;;;;4.67;4.27;;;8.80;99.90;;;7.42;100.00;87567.34;5039995;28;20226;-74
2021/01/20 07:34:21;;;;;;;5.20;4.70;;;8.80;99.90;;;7.38;100.00;87761.50;5038952;28;20284;-75
2021/01/20 07:37:08;;;;;;;6.03;4.47;;;8.80;99.90;;;7.41;100.00;87908.88;5041055;28;20219;-75
2021/01/20 07:40:08;;;;;;;5.23;4.73;;;8.80;99.90;;;7.41;100.00;88173.88;5044538;28;20440;-74
2021/01/20 07:42:52;;;;;;;6.70;4.87;;;8.80;99.90;;;7.38;100.00;88301.00;5033063;28;20279;-75
2021/01/20 07:45:41;;;;;;;6.23;4.73;;;8.80;99.90;;;7.41;100.00;88406.59;5035105;28;20219;-75
2021/01/20 07:48:31;;;;;;;4.40;4.07;;;8.90;99.90;;;7.38;100.00;88516.50;5036857;28;20207;-75
2021/01/20 07:51:20;;;;;;;6.17;4.93;;;8.90;99.90;;;7.37;100.00;88594.53;5037433;28;20396;-74
2021/01/20 07:54:07;;;;;;;7.60;4.83;;;8.90;99.90;;;7.42;100.00;88672.38;5041853;28;20203;-75
2021/01/20 07:56:52;;;;;;;5.23;4.43;;;8.90;99.90;;;7.34;100.00;88782.47;5040302;28;20679;-75
2021/01/20 07:59:37;;;;;;;6.43;4.80;;;8.90;99.90;;;7.35;100.00;88857.63;5036090;28;20518;-74
2021/01/20 08:02:23;;;;;;;5.90;5.30;;;9.00;99.90;;;7.33;100.00;88893.13;5035824;28;20210;-75
2021/01/20 08:05:10;;;;;;;5.30;4.80;;;9.00;99.90;;;7.33;100.00;88922.09;5045683;28;20230;-75
2021/01/20 08:08:11;;;;;;;5.57;3.97;;;9.00;99.90;;;7.35;100.00;88901.25;5047458;28;20230;-75
2021/01/20 08:11:00;;;;;;;5.50;4.03;;;9.00;99.90;;;7.33;100.00;88963.13;5037184;28;20682;-75
2021/01/20 08:13:46;;;;;;;4.67;3.83;;;9.00;99.90;;;7.35;100.00;88975.66;5047420;28;20688;-75
2021/01/20 08:16:34;;;;;;;4.77;3.23;;;9.00;99.90;;;7.33;100.00;88988.78;5042357;28;20210;-75
2021/01/20 08:19:19;;;;;;;4.93;4.00;;;9.00;99.90;;;7.39;100.00;88927.78;5036904;28;20214;-75
2021/01/20 08:22:12;;;;;;;6.60;4.30;;;9.00;99.90;;;7.36;100.00;88933.53;5043197;28;20581;-74
2021/01/20 08:24:58;;;;;;;3.63;2.90;;;9.00;99.90;;;7.28;100.00;88914.59;5028689;28;20584;-74
2021/01/20 08:27:45;;;;;;;3.97;3.30;;;9.00;99.90;;;7.11;100.00;88953.19;5049536;28;20198;-74
2021/01/20 08:30:32;;;;;;;5.23;3.43;;;9.00;99.90;;;6.90;100.00;88977.00;5057268;28;20207;-74
2021/01/20 08:33:20;;;;;;;4.30;3.80;;;9.00;99.90;;;6.79;100.00;88973.31;5034922;28;20203;-74
2021/01/20 08:36:06;;;;;;;5.70;3.90;;;9.00;99.90;;;6.77;100.00;88917.22;5043732;28;20246;-74
2021/01/20 08:39:06;;;;;;;3.93;3.40;;;9.00;99.90;;;6.88;100.00;88786.09;5045258;28;20568;-74
2021/01/20 08:42:22;;;;;;;4.73;3.10;;;9.00;99.90;;;6.95;100.00;88664.03;5043964;28;20730;-74
2021/01/20 08:45:14;;;;;;;4.87;3.00;;;9.00;99.90;;;7.02;100.00;88592.44;5044710;28;20317;-74
2021/01/20 08:48:02;;;;;;;6.23;3.40;;;8.90;99.90;;;7.06;100.00;88528.44;5049226;28;20234;-74
2021/01/20 08:50:47;;;;;;;4.33;3.23;;;8.90;99.90;;;7.12;100.00;88462.28;5034658;28;20606;-74
2021/01/20 08:53:32;;;;;;;4.33;3.10;;;8.90;99.90;;;7.17;100.00;88400.50;5039546;28;20290;-74
2021/01/20 08:56:26;;;;;;;4.10;3.40;;;8.90;99.90;;;7.20;100.00;88328.03;5041180;28;20207;-74
2021/01/20 08:59:12;;;;;;;3.13;2.83;;;8.90;99.90;;;7.19;100.00;88301.63;5040647;28;20330;-76
2021/01/20 09:02:18;;;;;;;4.30;3.90;;;8.90;99.90;;;7.25;100.00;88209.81;5046639;28;20250;-73
2021/01/20 09:05:03;;;;;;;4.00;3.60;;;8.90;99.90;;;7.41;100.00;88121.81;5054414;28;20456;-74
2021/01/20 09:07:48;;;;;;;3.70;3.30;;;8.90;99.90;;;7.56;100.00;88000.44;5053895;28;20211;-74
2021/01/20 09:10:34;;;;;;;4.00;3.60;;;8.90;99.90;;;7.71;100.00;87896.91;5033382;28;20371;-74
2021/01/20 09:13:19;;;;;;;5.13;3.70;;;8.90;99.90;;;7.97;100.00;87795.34;5048695;28;20242;-74
2021/01/20 09:16:07;;;;;;;3.60;2.97;;;8.90;99.90;;;8.06;100.00;87808.69;5037206;28;20199;-74
2021/01/20 09:18:52;;;;;;;3.87;3.07;;;9.00;99.90;;;8.16;100.00;87855.38;5045386;28;20691;-74
2021/01/20 09:21:37;;;;;;;3.80;3.33;;;9.00;99.90;;;8.17;100.00;87987.88;5047790;28;20235;-74
2021/01/20 09:24:22;;;;;;;3.47;3.17;;;9.10;99.90;;;8.17;100.00;88101.63;5042232;28;20302;-74
2021/01/20 09:27:08;;;;;;;3.87;3.40;;;9.20;99.90;;;8.27;100.00;88182.53;5043304;28;20215;-74
2021/01/20 09:29:53;;;;;;;3.80;3.23;;;9.30;99.90;;;8.16;100.00;88397.38;5046462;28;20230;-74
2021/01/20 09:32:40;;;;;;;3.50;3.20;;;9.40;99.90;;;8.12;100.00;88625.16;5040452;28;20207;-74
2021/01/20 09:35:25;;;;;;;4.57;3.40;;;9.50;99.90;;;8.22;100.00;88866.19;5042545;28;20233;-73
2021/01/20 09:38:10;;;;;;;3.40;3.07;;;9.50;99.90;;;8.29;100.00;89095.09;5048779;28;20240;-74
2021/01/20 09:40:56;;;;;;;3.40;2.90;;;9.60;99.90;;;8.34;100.00;89340.88;5043449;28;20587;-74
2021/01/20 09:43:41;;;;;;;3.37;2.87;;;9.70;99.90;;;9.18;100.00;89206.38;5041312;28;20222;-73
2021/01/20 09:46:26;;;;;;;4.67;3.10;;;9.70;99.90;;;9.28;100.00;89360.41;5047238;28;20643;-74
2021/01/20 09:49:12;;;;;;;4.63;3.30;;;9.80;99.90;;;9.47;100.00;89548.66;5040364;28;20207;-74
2021/01/20 09:51:57;;;;;;;3.83;3.00;;;9.90;99.90;;;10.25;100.00;89483.97;5042342;28;20230;-75
2021/01/20 09:54:43;;;;;;;3.30;3.00;;;10.00;99.90;;;9.37;100.00;90279.50;5042902;28;20672;-75
2021/01/20 09:57:27;;;;;;;2.93;2.73;;;10.20;99.90;;;9.15;100.00;90950.34;5039790;28;20222;-75
2021/01/20 10:00:14;;;;;;;2.93;2.60;;;10.50;99.90;;;9.48;100.00;91244.16;5055662;28;20222;-76
2021/01/20 10:03:02;;;;;;;3.40;3.10;;;10.60;99.90;;;9.22;100.00;91628.03;5045999;28;20571;-75
2021/01/20 10:05:50;;;;;;;4.07;3.33;;;10.70;99.90;;;9.15;100.00;92095.41;5048492;28;20202;-76
2021/01/20 10:08:34;;;;;;;3.20;2.90;;;10.90;99.90;;;9.73;100.00;92114.31;5044450;28;20577;-76
2021/01/20 10:11:20;;;;;;;3.50;3.20;;;10.90;99.90;;;9.11;100.00;92520.81;5048525;28;20218;-76
2021/01/20 10:14:05;;;;;;;3.40;3.10;;;11.00;99.90;;;8.86;100.00;92811.34;5032980;28;20246;-74
2021/01/20 10:16:52;;;;;;;4.03;2.90;;;11.10;99.90;;;8.87;100.00;92769.97;5032401;28;20203;-76
2021/01/20 10:19:37;;;;;;;3.63;2.50;;;11.20;99.90;;;8.92;100.00;92697.19;5051609;28;20226;-76
2021/01/20 10:22:23;;;;;;;3.93;3.00;;;11.20;99.90;;;8.99;100.00;92722.75;5044612;28;20203;-74
2021/01/20 10:25:10;;;;;;;3.33;2.90;;;11.20;99.90;;;9.16;100.00;92656.63;5034455;28;20282;-74
2021/01/20 10:27:59;;;;;;;3.77;2.70;;;11.20;99.90;;;9.04;100.00;92797.56;5047902;28;20257;-74
2021/01/20 10:30:44;;;;;;;6.07;3.40;;;11.20;99.90;;;9.01;100.00;92747.28;5044683;28;20225;-74
2021/01/20 10:33:29;;;;;;;5.40;3.60;;;11.20;99.90;;;8.84;100.00;92924.06;5040191;28;20563;-74
2021/01/20 10:36:14;;;;;;;3.73;3.13;;;11.20;99.90;;;8.85;100.00;93070.59;5038027;28;20750;-74
2021/01/20 10:39:01;;;;;;;4.07;3.13;;;11.20;99.90;;;8.87;100.00;93096.13;5035881;28;20228;-74
2021/01/20 10:41:46;;;;;;;3.00;2.70;;;11.30;99.90;;;8.93;100.00;93146.75;5039541;28;20235;-74
2021/01/20 10:44:34;;;;;;;3.77;2.97;;;11.30;99.90;;;9.03;100.00;93326.50;5044867;28;20259;-74
2021/01/20 10:47:19;;;;;;;5.27;3.37;;;11.20;99.90;;;9.22;100.00;93399.41;5042635;28;20727;-74
2021/01/20 10:50:06;;;;;;;3.97;2.97;;;11.20;99.90;;;9.33;100.00;93697.63;5035439;28;20289;-77
2021/01/20 10:52:51;;;;;;;4.47;3.17;;;11.20;99.90;;;9.45;100.00;93817.09;5043232;28;20585;-76
2021/01/20 10:55:37;;;;;;;2.83;2.53;;;11.20;99.90;;;9.40;100.00;93930.31;5043441;28;20207;-76
2021/01/20 10:58:22;;;;;;;3.57;3.27;;;11.20;99.90;;;9.34;100.00;94211.28;5033588;28;20208;-76
2021/01/20 11:01:07;;;;;;;3.00;2.70;;;11.20;99.90;;;9.26;100.00;94325.66;5040171;28;20257;-76
2021/01/20 11:03:52;;;;;;;5.03;3.43;;;11.20;99.90;;;9.17;100.00;94460.78;5048103;28;20218;-75
2021/01/20 11:06:38;;;;;;;2.70;2.50;;;11.20;99.90;;;9.16;100.00;94366.44;5047063;28;20211;-74
2021/01/20 11:09:22;;;;;;;4.93;3.10;;;11.20;99.90;;;9.45;100.00;94313.81;5049140;28;20210;-74
2021/01/20 11:12:09;;;;;;;4.37;3.03;;;11.10;99.90;;;9.73;100.00;94311.13;5050084;28;20286;-74
2021/01/20 11:14:54;;;;;;;4.57;2.60;;;11.20;99.90;;;9.88;100.00;94194.84;5036924;28;20204;-74
2021/01/20 11:17:39;;;;;;;4.17;3.27;;;11.10;99.90;;;9.69;100.00;94289.28;5048702;28;20630;-74
2021/01/20 11:20:25;;;;;;;4.03;2.87;;;11.20;99.90;;;9.56;100.00;94439.59;5037632;28;20609;-74
2021/01/20 11:23:11;;;;;;;4.27;3.07;;;11.30;99.90;;;9.52;100.00;94538.94;5043103;28;20254;-74
2021/01/20 11:25:56;;;;;;;5.33;3.20;;;11.30;99.90;;;9.48;100.00;94783.47;5048951;28;20207;-75
2021/01/20 11:28:42;;;;;;;3.70;2.73;;;11.30;99.90;;;9.51;100.00;94869.16;5039675;28;20250;-75
2021/01/20 11:31:27;;;;;;;3.00;2.70;;;11.30;99.90;;;9.50;100.00;94934.63;5044846;28;20343;-75
2021/01/20 11:34:12;;;;;;;3.80;2.80;;;11.40;99.90;;;9.57;100.00;94904.56;5048723;28;20203;-75
2021/01/20 11:36:57;;;;;;;3.50;2.73;;;11.40;99.90;;;9.70;100.00;94911.63;5030581;28;20211;-75
2021/01/20 11:39:42;;;;;;;3.33;3.00;;;11.40;99.90;;;9.76;100.00;94960.72;5042977;28;20207;-75
2021/01/20 11:42:28;;;;;;;3.43;2.70;;;11.40;99.90;;;9.89;100.00;95009.13;5038956;28;20211;-75
2021/01/20 11:45:14;;;;;;;4.00;3.20;;;11.40;99.90;;;9.99;100.00;94774.81;5040839;28;20578;-75
2021/01/20 11:48:00;;;;;;;3.83;3.33;;;11.40;99.90;;;9.84;100.00;94918.56;5048822;28;20214;-76